createdAt,value
2022-08-07T00:02:35.339Z,9.95
2022-08-07T00:04:09.623Z,9.25
2022-08-07T00:06:45.496Z,7.97
2022-08-07T00:09:22.841Z,9.90
2022-08-07T00:11:55.494Z,10.48
2022-08-07T00:14:25.486Z,9.07
2022-08-07T00:16:52.718Z,6.50
2022-08-07T00:19:21.685Z,7.03
2022-08-07T00:21:57.053Z,6.80
2022-08-07T00:24:29.271Z,7.15
2022-08-07T00:27:06.193Z,8.00
2022-08-07T00:29:33.862Z,5.25
2022-08-07T00:32:05.762Z,7.47
2022-08-07T00:34:33.619Z,7.53
2022-08-07T00:37:02.892Z,8.15
2022-08-07T00:39:32.434Z,8.85
2022-08-07T00:42:01.974Z,7.22
2022-08-07T00:44:33.184Z,7.65
2022-08-07T00:47:00.478Z,7.43
2022-08-07T00:50:21.367Z,7.22
2022-08-07T00:52:17.729Z,6.63
2022-08-07T00:54:47.282Z,6.40
2022-08-07T00:57:22.278Z,6.43
2022-08-07T00:59:49.495Z,7.80
2022-08-07T01:02:28.785Z,8.27
2022-08-07T01:04:58.637Z,11.52
2022-08-07T01:07:27.604Z,5.75
2022-08-07T01:10:06.322Z,6.13
2022-08-07T01:12:40.096Z,7.88
2022-08-07T01:15:22.507Z,9.65
2022-08-07T01:18:03.012Z,8.80
2022-08-07T01:20:43.078Z,7.95
2022-08-07T01:23:12.984Z,10.93
2022-08-07T01:25:55.751Z,6.57
2022-08-07T01:28:23.746Z,6.20
2022-08-07T01:30:52.166Z,9.02
2022-08-07T01:33:18.842Z,7.85
2022-08-07T01:35:53.594Z,8.80
2022-08-07T01:38:24.793Z,7.63
2022-08-07T01:40:55.696Z,7.97
2022-08-07T01:43:23.928Z,9.15
2022-08-07T01:45:54.586Z,8.70
2022-08-07T01:48:30.597Z,8.73
2022-08-07T01:51:24.351Z,8.43
2022-08-07T01:54:08.601Z,10.40
2022-08-07T01:56:53.258Z,8.63
2022-08-07T01:59:34.002Z,9.18
2022-08-07T02:02:10.469Z,7.25
2022-08-07T02:07:44.753Z,6.93
2022-08-07T02:10:14.501Z,9.23
2022-08-07T02:12:46.413Z,8.75
2022-08-07T02:15:22.615Z,10.23
2022-08-07T02:17:51.905Z,8.65
2022-08-07T02:20:23.900Z,9.00
2022-08-07T02:22:55.331Z,9.23
2022-08-07T02:26:10.142Z,7.68
2022-08-07T02:28:12.941Z,7.90
2022-08-07T02:30:40.799Z,7.82
2022-08-07T02:33:10.423Z,9.65
2022-08-07T02:36:29.364Z,6.15
2022-08-07T02:38:31.943Z,7.63
2022-08-07T02:41:00.704Z,8.60
2022-08-07T02:43:28.752Z,8.60
2022-08-07T02:46:01.650Z,10.95
2022-08-07T02:48:29.712Z,9.75
2022-08-07T02:50:59.594Z,7.40
2022-08-07T02:53:38.309Z,9.13
2022-08-07T02:56:17.597Z,13.25
2022-08-07T02:58:54.249Z,7.20
2022-08-07T03:01:35.592Z,7.70
2022-08-07T03:04:07.814Z,8.57
2022-08-07T03:06:41.991Z,7.72
2022-08-07T03:09:11.843Z,8.07
2022-08-07T03:11:52.489Z,8.52
2022-08-07T03:14:26.105Z,8.65
2022-08-07T03:16:55.573Z,7.13
2022-08-07T03:19:22.918Z,8.20
2022-08-07T03:21:51.227Z,10.55
2022-08-07T03:24:27.214Z,11.95
2022-08-07T03:26:58.066Z,8.40
2022-08-07T03:29:30.525Z,9.80
2022-08-07T03:31:58.038Z,7.57
2022-08-07T03:34:27.942Z,9.90
2022-08-07T03:36:57.317Z,19.15
2022-08-07T03:39:46.007Z,8.52
2022-08-07T03:42:14.192Z,10.98
2022-08-07T03:44:41.467Z,10.50
2022-08-07T03:47:10.824Z,10.38
2022-08-07T03:49:39.441Z,8.90
2022-08-07T03:52:08.219Z,8.88
2022-08-07T03:54:55.072Z,7.80
2022-08-07T03:58:32.706Z,10.73
2022-08-07T04:00:14.328Z,10.40
2022-08-07T04:02:47.496Z,11.35
2022-08-07T04:05:19.780Z,10.93
2022-08-07T04:07:51.683Z,16.08
2022-08-07T04:10:19.984Z,11.27
2022-08-07T04:12:48.879Z,10.73
2022-08-07T04:15:18.200Z,12.25
2022-08-07T04:18:56.670Z,11.95
2022-08-07T04:20:32.170Z,13.25
2022-08-07T04:23:06.424Z,12.15
2022-08-07T04:25:38.982Z,15.48
2022-08-07T04:28:10.384Z,10.13
2022-08-07T04:30:55.641Z,10.52
2022-08-07T04:33:24.774Z,9.93
2022-08-07T04:35:53.976Z,10.43
2022-08-07T04:38:21.888Z,13.50
2022-08-07T04:40:52.106Z,12.25
2022-08-07T04:44:10.532Z,12.13
2022-08-07T04:46:59.368Z,10.80
2022-08-07T04:49:37.781Z,10.68
2022-08-07T04:52:10.998Z,11.10
2022-08-07T04:54:54.980Z,11.75
2022-08-07T04:58:32.100Z,14.98
2022-08-07T05:00:30.796Z,9.70
2022-08-07T05:03:17.160Z,12.63
2022-08-07T05:06:19.965Z,11.93
2022-08-07T05:09:08.975Z,10.23
2022-08-07T05:11:58.730Z,12.90
2022-08-07T05:14:54.051Z,12.45
2022-08-07T05:18:00.600Z,15.27
2022-08-07T05:20:16.311Z,11.93
2022-08-07T05:22:46.115Z,11.25
2022-08-07T05:25:25.866Z,11.25
2022-08-07T05:28:21.260Z,12.40
2022-08-07T05:30:52.161Z,11.70
2022-08-07T05:33:21.360Z,11.27
2022-08-07T05:35:50.725Z,11.35
2022-08-07T05:39:00.704Z,13.13
2022-08-07T05:41:14.355Z,15.10
2022-08-07T05:44:01.554Z,10.05
2022-08-07T05:46:36.290Z,11.77
2022-08-07T05:49:12.040Z,14.32
2022-08-07T05:51:42.307Z,9.40
2022-08-07T05:54:19.510Z,10.20
2022-08-07T05:56:58.023Z,11.55
2022-08-07T05:59:27.586Z,10.88
2022-08-07T06:01:57.278Z,11.32
2022-08-07T06:04:26.305Z,10.38
2022-08-07T06:07:03.803Z,10.52
2022-08-07T06:10:04.273Z,11.07
2022-08-07T06:12:21.038Z,14.60
2022-08-07T06:14:55.076Z,11.55
2022-08-07T06:17:37.976Z,8.95
2022-08-07T06:20:12.328Z,13.77
2022-08-07T06:23:09.357Z,11.88
2022-08-07T06:25:54.051Z,9.30
2022-08-07T06:28:27.923Z,8.55
2022-08-07T06:30:56.259Z,8.60
2022-08-07T06:33:26.317Z,10.90
2022-08-07T06:36:12.295Z,8.68
2022-08-07T06:38:58.835Z,11.35
2022-08-07T06:41:59.235Z,10.45
2022-08-07T06:44:31.140Z,8.35
2022-08-07T06:47:10.662Z,9.73
2022-08-07T06:49:51.218Z,12.70
2022-08-07T06:52:31.272Z,10.55
2022-08-07T06:55:33.997Z,12.23
2022-08-07T06:57:57.146Z,9.57
2022-08-07T07:00:24.715Z,13.05
2022-08-07T07:02:57.437Z,10.38
2022-08-07T07:06:03.947Z,12.77
2022-08-07T07:08:18.542Z,12.98
2022-08-07T07:10:56.730Z,9.20
2022-08-07T07:13:41.630Z,8.80
2022-08-07T07:16:30.499Z,9.55
2022-08-07T07:19:34.131Z,9.73
2022-08-07T07:22:12.114Z,18.42
2022-08-07T07:24:43.161Z,12.23
2022-08-07T07:27:35.684Z,9.23
2022-08-07T07:30:32.355Z,14.43
2022-08-07T07:33:06.127Z,9.30
2022-08-07T07:35:43.757Z,10.18
2022-08-07T07:38:23.594Z,12.77
2022-08-07T07:40:52.194Z,8.95
2022-08-07T07:43:27.525Z,10.75
2022-08-07T07:46:37.884Z,11.60
2022-08-07T07:48:59.922Z,12.07
2022-08-07T07:51:58.468Z,8.00
2022-08-07T07:54:25.032Z,17.23
2022-08-07T07:56:55.369Z,10.20
2022-08-07T07:59:52.305Z,10.43
2022-08-07T08:02:34.180Z,11.60
2022-08-07T08:05:05.189Z,10.18
2022-08-07T08:07:35.693Z,9.75
2022-08-07T08:10:14.868Z,8.32
2022-08-07T08:13:00.602Z,9.55
2022-08-07T08:15:57.919Z,10.20
2022-08-07T08:18:28.138Z,11.38
2022-08-07T08:20:55.777Z,7.97
2022-08-07T08:23:42.609Z,10.43
2022-08-07T08:26:31.012Z,13.18
2022-08-07T08:29:01.185Z,10.63
2022-08-07T08:32:17.030Z,11.25
2022-08-07T08:34:27.107Z,7.68
2022-08-07T08:36:58.046Z,9.85
2022-08-07T08:39:39.581Z,8.93
2022-08-07T08:42:31.893Z,12.18
2022-08-07T08:45:13.188Z,8.65
2022-08-07T08:47:52.773Z,9.25
2022-08-07T08:50:34.918Z,7.43
2022-08-07T08:53:19.238Z,8.30
2022-08-07T08:56:02.445Z,5.43
2022-08-07T08:58:57.202Z,13.02
2022-08-07T09:01:43.808Z,7.00
2022-08-07T09:04:31.605Z,9.77
2022-08-07T09:07:06.155Z,7.03
2022-08-07T09:10:02.514Z,6.43
2022-08-07T09:12:54.339Z,8.50
2022-08-07T09:16:22.697Z,6.93
2022-08-07T09:18:53.369Z,6.72
2022-08-07T09:21:33.784Z,11.60
2022-08-07T09:24:55.333Z,13.35
2022-08-07T09:27:30.343Z,7.25
2022-08-07T09:30:08.794Z,7.80
2022-08-07T09:33:05.236Z,8.70
2022-08-07T09:36:00.951Z,8.13
2022-08-07T09:39:27.394Z,10.73
2022-08-07T09:42:17.005Z,6.63
2022-08-07T09:47:20.215Z,5.43
2022-08-07T09:48:07.537Z,7.20
2022-08-07T09:50:53.142Z,9.68
2022-08-07T09:53:22.569Z,8.65
2022-08-07T09:56:03.674Z,5.15
2022-08-07T09:58:53.151Z,5.60
2022-08-07T10:01:51.222Z,7.93
2022-08-07T10:04:19.916Z,5.95
2022-08-07T10:07:39.658Z,9.68
2022-08-07T10:10:21.518Z,12.65
2022-08-07T10:13:54.834Z,8.35
2022-08-07T10:16:49.028Z,8.73
2022-08-07T10:19:40.122Z,6.68
2022-08-07T10:22:50.862Z,6.15
2022-08-07T10:25:55.026Z,6.38
2022-08-07T10:28:30.607Z,5.97
2022-08-07T10:31:06.085Z,5.72
2022-08-07T10:34:14.043Z,4.18
2022-08-07T10:36:59.093Z,7.72
2022-08-07T10:40:05.276Z,7.03
2022-08-07T10:42:40.921Z,4.70
2022-08-07T10:45:57.667Z,6.05
2022-08-07T10:48:52.731Z,5.47
2022-08-07T10:52:01.855Z,4.25
2022-08-07T10:55:01.537Z,8.15
2022-08-07T10:57:51.547Z,5.63
2022-08-07T11:00:39.484Z,4.70
2022-08-07T11:03:17.142Z,7.70
2022-08-07T11:06:02.899Z,6.78
2022-08-07T11:08:51.773Z,6.45
2022-08-07T11:11:25.722Z,7.55
2022-08-07T11:14:45.309Z,5.40
2022-08-07T11:17:02.101Z,4.60
2022-08-07T11:19:53.111Z,3.95
2022-08-07T11:22:43.972Z,5.32
2022-08-07T11:25:25.837Z,8.35
2022-08-07T11:28:04.053Z,6.72
2022-08-07T11:31:11.619Z,7.65
2022-08-07T11:34:17.253Z,5.40
2022-08-07T11:36:52.379Z,6.10
2022-08-07T11:40:00.415Z,6.90
2022-08-07T11:43:15.368Z,5.45
2022-08-07T11:46:19.208Z,7.40
2022-08-07T11:49:51.599Z,6.70
2022-08-07T11:52:37.693Z,4.88
2022-08-07T11:56:25.082Z,4.25
2022-08-07T11:58:38.844Z,4.32
2022-08-07T12:01:11.431Z,6.38
2022-08-07T12:04:06.751Z,4.93
2022-08-07T12:06:50.906Z,5.97
2022-08-07T12:09:46.208Z,8.30
2022-08-07T12:13:11.632Z,4.47
2022-08-07T12:16:07.075Z,4.72
2022-08-07T12:18:51.156Z,6.95
2022-08-07T12:21:55.869Z,5.65
2022-08-07T12:24:37.854Z,8.50
2022-08-07T12:27:15.918Z,9.63
2022-08-07T12:29:53.731Z,5.43
2022-08-07T12:32:34.774Z,5.13
2022-08-07T12:35:08.371Z,5.32
2022-08-07T12:38:10.759Z,5.45
2022-08-07T12:40:47.375Z,8.27
2022-08-07T12:44:02.573Z,2.47
2022-08-07T12:46:15.901Z,2.33
2022-08-07T12:49:39.927Z,2.38
2022-08-07T12:52:14.429Z,5.57
2022-08-07T12:54:54.607Z,2.35
2022-08-07T12:57:59.159Z,3.97
2022-08-07T13:00:31.037Z,4.40
2022-08-07T13:03:26.874Z,5.20
2022-08-07T13:06:27.617Z,5.57
2022-08-07T13:10:20.115Z,5.22
2022-08-07T13:12:36.398Z,7.25
2022-08-07T13:15:34.570Z,6.68
2022-08-07T13:18:28.340Z,4.32
2022-08-07T13:21:51.237Z,5.28
2022-08-07T13:24:33.160Z,17.77
2022-08-07T13:27:13.157Z,2.22
2022-08-07T13:30:05.176Z,2.47
2022-08-07T13:32:55.515Z,4.07
2022-08-07T13:36:00.949Z,3.08
2022-08-07T13:38:24.681Z,4.15
2022-08-07T13:41:20.696Z,3.20
2022-08-07T13:43:52.643Z,2.40
2022-08-07T13:46:32.759Z,4.57
2022-08-07T13:49:01.678Z,3.20
2022-08-07T13:52:22.943Z,2.38
2022-08-07T13:54:23.790Z,3.75
2022-08-07T13:56:59.470Z,5.43
2022-08-07T13:59:33.257Z,2.00
2022-08-07T14:02:10.362Z,3.65
2022-08-07T14:05:05.527Z,3.88
2022-08-07T14:10:42.290Z,3.13
2022-08-07T14:13:18.018Z,5.15
2022-08-07T14:15:53.220Z,2.15
2022-08-07T14:18:31.369Z,4.18
2022-08-07T14:21:08.441Z,3.77
2022-08-07T14:24:00.911Z,2.83
2022-08-07T14:26:56.384Z,3.08
2022-08-07T14:30:09.807Z,3.15
2022-08-07T14:32:16.103Z,5.45
2022-08-07T14:34:48.193Z,2.45
2022-08-07T14:37:19.479Z,2.28
2022-08-07T14:40:17.257Z,3.92
2022-08-07T14:42:59.932Z,3.78
2022-08-07T14:45:51.399Z,4.72
2022-08-07T14:48:27.275Z,2.30
2022-08-07T14:50:56.743Z,5.05
2022-08-07T14:54:03.758Z,2.35
2022-08-07T14:56:15.706Z,2.28
2022-08-07T14:59:02.064Z,4.88
2022-08-07T15:01:42.646Z,3.60
2022-08-07T15:04:11.660Z,4.15
2022-08-07T15:06:40.642Z,1.65
2022-08-07T15:12:25.496Z,2.97
2022-08-07T15:15:08.237Z,3.58
2022-08-07T15:17:54.649Z,3.70
2022-08-07T15:23:22.385Z,2.05
2022-08-07T15:30:04.546Z,4.05
2022-08-07T15:31:57.671Z,3.65
2022-08-07T15:34:33.565Z,2.40
2022-08-07T15:37:07.090Z,3.30
2022-08-07T15:42:44.581Z,3.00
2022-08-07T15:45:22.324Z,3.20
2022-08-07T15:48:00.876Z,2.53
2022-08-07T15:53:52.137Z,4.63
2022-08-07T15:56:24.628Z,2.20
2022-08-07T15:58:58.834Z,2.28
2022-08-07T16:01:39.115Z,4.00
2022-08-07T16:04:15.218Z,2.95
2022-08-07T16:06:51.668Z,2.45
2022-08-07T16:09:40.934Z,4.40
2022-08-07T16:12:25.133Z,4.80
2022-08-07T16:15:54.619Z,2.90
2022-08-07T16:18:49.952Z,7.45
2022-08-07T16:21:53.481Z,5.67
2022-08-07T16:24:34.232Z,1.58
2022-08-07T16:27:40.663Z,3.97
2022-08-07T16:30:30.391Z,3.47
2022-08-07T16:34:01.920Z,1.48
2022-08-07T16:36:06.743Z,2.22
2022-08-07T16:39:06.079Z,2.55
2022-08-07T16:41:55.374Z,1.67
2022-08-07T16:44:57.217Z,2.03
2022-08-07T16:47:57.077Z,2.38
2022-08-07T16:51:07.225Z,4.10
2022-08-07T16:54:02.290Z,2.53
2022-08-07T16:56:48.992Z,1.88
2022-08-07T16:59:19.850Z,2.80
2022-08-07T17:02:51.357Z,1.52
2022-08-07T17:06:19.850Z,1.35
2022-08-07T17:09:09.233Z,2.45
2022-08-07T17:12:01.528Z,4.15
2022-08-07T17:14:41.872Z,2.13
2022-08-07T17:17:44.261Z,2.60
2022-08-07T17:20:37.478Z,2.15
2022-08-07T17:23:22.520Z,3.10
2022-08-07T17:26:04.363Z,2.65
2022-08-07T17:28:38.242Z,1.83
2022-08-07T17:31:44.166Z,1.95
2022-08-07T17:34:40.995Z,1.77
2022-08-07T17:38:06.529Z,3.55
2022-08-07T17:40:30.277Z,4.28
2022-08-07T17:43:17.848Z,2.08
2022-08-07T17:45:55.547Z,2.25
2022-08-07T17:48:33.405Z,3.53
2022-08-07T17:51:11.594Z,1.75
2022-08-07T17:54:00.165Z,2.92
2022-08-07T17:56:36.310Z,1.30
2022-08-07T17:59:35.412Z,3.42
2022-08-07T18:02:38.724Z,3.75
2022-08-07T18:05:21.299Z,2.22
2022-08-07T18:08:24.477Z,3.45
2022-08-07T18:12:08.250Z,1.42
2022-08-07T18:14:23.763Z,2.47
2022-08-07T18:17:07.424Z,2.08
2022-08-07T18:21:06.660Z,2.95
2022-08-07T18:23:05.343Z,1.77
2022-08-07T18:26:01.186Z,2.67
2022-08-07T18:28:57.941Z,3.88
2022-08-07T18:31:38.906Z,5.00
2022-08-07T18:34:36.991Z,4.47
2022-08-07T18:38:57.674Z,2.22
2022-08-07T18:40:39.846Z,2.63
2022-08-07T18:43:36.705Z,2.63
2022-08-07T18:46:25.764Z,1.98
2022-08-07T18:50:32.866Z,1.63
2022-08-07T18:52:53.820Z,3.20
2022-08-07T18:55:42.909Z,3.90
2022-08-07T18:58:33.974Z,2.80
2022-08-07T19:02:17.324Z,5.75
2022-08-07T19:04:54.747Z,5.00
2022-08-07T19:07:34.990Z,4.55
2022-08-07T19:10:14.837Z,2.08
2022-08-07T19:13:10.053Z,2.83
2022-08-07T19:16:04.329Z,4.40
2022-08-07T19:19:14.310Z,7.75
2022-08-07T19:21:56.862Z,4.32
2022-08-07T19:24:43.226Z,7.00
2022-08-07T19:28:56.697Z,3.05
2022-08-07T19:31:05.190Z,3.53
2022-08-07T19:32:59.752Z,3.20
2022-08-07T19:35:28.333Z,2.65
2022-08-07T19:38:04.339Z,4.78
2022-08-07T19:40:50.515Z,8.00
2022-08-07T19:43:50.195Z,3.63
2022-08-07T19:46:11.700Z,4.85
2022-08-07T19:48:53.729Z,2.65
2022-08-07T19:51:50.874Z,5.78
2022-08-07T19:54:31.938Z,3.00
2022-08-07T19:57:56.856Z,6.60
2022-08-07T20:00:10.017Z,2.65
2022-08-07T20:02:52.035Z,3.53
2022-08-07T20:05:28.175Z,5.70
2022-08-07T20:08:02.125Z,4.35
2022-08-07T20:10:54.483Z,3.20
2022-08-07T20:13:37.378Z,4.00
2022-08-07T20:16:15.970Z,7.00
2022-08-07T20:19:00.067Z,5.20
2022-08-07T20:21:41.679Z,3.92
2022-08-07T20:24:35.753Z,3.95
2022-08-07T20:27:11.668Z,3.30
2022-08-07T20:29:56.743Z,6.05
2022-08-07T20:32:39.945Z,2.90
2022-08-07T20:35:10.731Z,2.10
2022-08-07T20:37:55.205Z,5.50
2022-08-07T20:40:32.165Z,4.63
2022-08-07T20:43:02.208Z,7.07
2022-08-07T20:45:32.679Z,3.58
2022-08-07T20:48:25.803Z,3.78
2022-08-07T20:50:59.606Z,4.60
2022-08-07T20:54:04.543Z,6.45
2022-08-07T20:56:16.578Z,4.97
2022-08-07T20:58:53.891Z,5.03
2022-08-07T21:01:22.252Z,5.85
2022-08-07T21:04:13.377Z,4.45
2022-08-07T21:06:53.237Z,2.88
2022-08-07T21:09:24.475Z,4.50
2022-08-07T21:11:55.826Z,4.35
2022-08-07T21:14:48.423Z,4.47
2022-08-07T21:18:02.950Z,3.58
2022-08-07T21:20:18.937Z,5.72
2022-08-07T21:22:57.355Z,4.18
2022-08-07T21:25:39.071Z,9.52
2022-08-07T21:28:50.071Z,6.97
2022-08-07T21:31:49.613Z,6.85
2022-08-07T21:34:46.072Z,5.10
2022-08-07T21:37:58.864Z,5.43
2022-08-07T21:40:38.364Z,5.60
2022-08-07T21:43:13.873Z,5.25
2022-08-07T21:46:10.269Z,6.28
2022-08-07T21:48:48.143Z,4.80
2022-08-07T21:54:18.735Z,7.18
2022-08-07T21:57:03.481Z,6.28
2022-08-07T22:00:04.073Z,9.70
2022-08-07T22:02:48.219Z,7.28
2022-08-07T22:05:21.810Z,7.85
2022-08-07T22:08:10.513Z,5.95
2022-08-07T22:10:42.401Z,3.85
2022-08-07T22:13:14.396Z,5.32
2022-08-07T22:16:38.482Z,5.32
2022-08-07T22:19:18.161Z,4.15
2022-08-07T22:22:01.695Z,8.15
2022-08-07T22:24:45.772Z,4.30
2022-08-07T22:27:56.293Z,2.97
2022-08-07T22:30:20.129Z,4.07
2022-08-07T22:32:58.069Z,4.47
2022-08-07T22:35:39.597Z,7.32
2022-08-07T22:38:25.736Z,3.63
2022-08-07T22:41:20.267Z,3.70
2022-08-07T22:43:56.026Z,4.35
2022-08-07T22:47:06.529Z,3.75
2022-08-07T22:50:07.041Z,5.88
2022-08-07T22:52:59.438Z,6.95
2022-08-07T22:55:30.134Z,7.68
2022-08-07T22:58:34.032Z,9.63
2022-08-07T23:01:51.959Z,3.88
2022-08-07T23:04:58.563Z,3.60
2022-08-07T23:08:22.613Z,5.78
2022-08-07T23:11:13.562Z,7.38
2022-08-07T23:14:19.820Z,5.50
2022-08-07T23:16:58.488Z,4.28
2022-08-07T23:20:02.804Z,6.82
2022-08-07T23:22:40.100Z,3.38
2022-08-07T23:25:28.573Z,5.05
2022-08-07T23:28:21.189Z,3.20
2022-08-07T23:31:18.597Z,2.15
2022-08-07T23:34:45.094Z,2.45
2022-08-07T23:37:30.185Z,5.07
2022-08-07T23:40:18.159Z,6.88
2022-08-07T23:43:16.875Z,7.43
2022-08-07T23:46:10.830Z,4.65
2022-08-07T23:48:56.155Z,5.72
2022-08-07T23:53:00.668Z,3.90
2022-08-07T23:54:45.932Z,3.95
2022-08-07T23:57:41.245Z,2.72
